Tolmachevo Airport
UNNT : now visible

Airfield :











YOU CAN JOIN US ON...

 
LOGIN :

Register | Disclaimer

   EN    FR    IT 

 









Legend :    VFR   Marginal VFR   IFR   Intensive IFR   Very Intensive IFR
Visi :
Ceiling :
>= 8 km
>= 3000ft
5 to 8 km
1000 to 3000 ft
1500m to 5 km
500 to 1000 ft
800 to 1500m
200 to 500 ft
< 800m
< 200 ft
Symbols :   Thunderstorms  Fog  Heavy snow  Heavy precipitations  Wind > 20 kt






- Airport Elevation : 365 ft
- IATA code : OVB


UNNT - Tolmachevo

CURRENT METAR :
  • 011200Z 15003MPS CAVOK 08/M06 Q1020 R25/150060 R16/090070 NOSIG RMK QFE755/1007

EXPIRED METARs :
  • 011130Z 15003MPS CAVOK 08/M05 Q1020 R25/150060 R16/090070 NOSIG RMK QFE755/1007
  • 011100Z 15003MPS CAVOK 09/M05 Q1020 R25/150060 R16/090070 NOSIG RMK QFE755/1007
  • 011030Z 14003MPS 120V190 CAVOK 09/M05 Q1020 R25/150060 R16/090070 NOSIG RMK QFE755/1007
  • 011000Z 14003MPS CAVOK 09/M05 Q1021 R25/150060 R16/090070 NOSIG RMK QFE755/1007
  • 010930Z 15003MPS CAVOK 09/M05 Q1021 R25/150060 R16/090070 NOSIG RMK QFE756/1008

TAF TAF UNNT
Valid from the 01 at 12:00 until the 02 at 12:00 UTC


011100Z 0112/0212 15003G08MPS CAVOK
BECMG 0202/0205 17008G15MPS



MET'MAP, your aeronautical weather chart ! - Copyright ORBIFLY December 2007 - Disclaimer

ORBIFLY MET'MAP TEAM :

Programming & Development : Alexandra Zaïnal
Concept & original design : Baudouin d'Aumeries
Assistance for programming : Marc-Olivier Méhu
Technical & hardware support : Manuel Goepfert

Contact : metmap@orbifly.com




SOURCES & CREDITS :

   NOAA       Earth
Advisory